sensor_id;sensor_type;location;lat;lon;timestamp;P1;durP1;ratioP1;P2;durP2;ratioP2
23310;SDS011;11828;51.508;18.118;2024-02-16T00:01:44;241.27;;;92.55;;
23310;SDS011;11828;51.508;18.118;2024-02-16T00:04:11;245.50;;;97.18;;
23310;SDS011;11828;51.508;18.118;2024-02-16T00:06:38;257.77;;;97.07;;
23310;SDS011;11828;51.508;18.118;2024-02-16T00:09:04;238.77;;;94.45;;
23310;SDS011;11828;51.508;18.118;2024-02-16T00:11:31;247.93;;;93.53;;
23310;SDS011;11828;51.508;18.118;2024-02-16T00:13:58;241.40;;;93.28;;
23310;SDS011;11828;51.508;18.118;2024-02-16T00:16:25;230.10;;;89.60;;
23310;SDS011;11828;51.508;18.118;2024-02-16T00:18:52;238.27;;;89.93;;
23310;SDS011;11828;51.508;18.118;2024-02-16T00:21:19;235.98;;;91.63;;
23310;SDS011;11828;51.508;18.118;2024-02-16T00:23:46;253.07;;;92.55;;
23310;SDS011;11828;51.508;18.118;2024-02-16T00:26:13;265.40;;;95.65;;
23310;SDS011;11828;51.508;18.118;2024-02-16T00:28:39;260.23;;;99.28;;
23310;SDS011;11828;51.508;18.118;2024-02-16T00:31:07;263.95;;;100.75;;
23310;SDS011;11828;51.508;18.118;2024-02-16T00:33:34;256.75;;;97.22;;
23310;SDS011;11828;51.508;18.118;2024-02-16T00:36:00;250.18;;;97.15;;
23310;SDS011;11828;51.508;18.118;2024-02-16T00:38:27;245.07;;;95.90;;
23310;SDS011;11828;51.508;18.118;2024-02-16T00:40:54;251.00;;;97.43;;
23310;SDS011;11828;51.508;18.118;2024-02-16T00:43:23;248.43;;;97.38;;
23310;SDS011;11828;51.508;18.118;2024-02-16T00:45:50;247.18;;;95.93;;
23310;SDS011;11828;51.508;18.118;2024-02-16T00:48:17;249.07;;;98.32;;
23310;SDS011;11828;51.508;18.118;2024-02-16T00:50:44;252.32;;;98.75;;
23310;SDS011;11828;51.508;18.118;2024-02-16T00:53:11;250.57;;;100.05;;
23310;SDS011;11828;51.508;18.118;2024-02-16T00:55:38;264.55;;;99.35;;
23310;SDS011;11828;51.508;18.118;2024-02-16T00:58:06;255.52;;;97.90;;
23310;SDS011;11828;51.508;18.118;2024-02-16T01:00:34;267.92;;;101.65;;
23310;SDS011;11828;51.508;18.118;2024-02-16T01:03:01;255.45;;;99.50;;
23310;SDS011;11828;51.508;18.118;2024-02-16T01:05:28;254.95;;;97.68;;
23310;SDS011;11828;51.508;18.118;2024-02-16T01:07:54;280.23;;;105.35;;
23310;SDS011;11828;51.508;18.118;2024-02-16T01:10:22;262.15;;;102.65;;
23310;SDS011;11828;51.508;18.118;2024-02-16T01:12:48;264.70;;;104.20;;
23310;SDS011;11828;51.508;18.118;2024-02-16T01:15:17;260.55;;;104.15;;
23310;SDS011;11828;51.508;18.118;2024-02-16T01:17:44;259.10;;;101.47;;
23310;SDS011;11828;51.508;18.118;2024-02-16T01:20:11;260.55;;;100.45;;
23310;SDS011;11828;51.508;18.118;2024-02-16T01:22:38;268.60;;;100.95;;
23310;SDS011;11828;51.508;18.118;2024-02-16T01:25:05;251.55;;;96.38;;
23310;SDS011;11828;51.508;18.118;2024-02-16T01:27:34;246.38;;;95.53;;
23310;SDS011;11828;51.508;18.118;2024-02-16T01:30:03;249.48;;;95.13;;
23310;SDS011;11828;51.508;18.118;2024-02-16T01:32:32;247.98;;;95.57;;
23310;SDS011;11828;51.508;18.118;2024-02-16T01:35:00;242.88;;;94.00;;
23310;SDS011;11828;51.508;18.118;2024-02-16T01:37:26;243.50;;;93.60;;
23310;SDS011;11828;51.508;18.118;2024-02-16T01:39:53;240.15;;;93.50;;
23310;SDS011;11828;51.508;18.118;2024-02-16T01:42:20;244.18;;;90.57;;
23310;SDS011;11828;51.508;18.118;2024-02-16T01:44:46;252.98;;;95.00;;
23310;SDS011;11828;51.508;18.118;2024-02-16T01:47:13;263.38;;;95.07;;
23310;SDS011;11828;51.508;18.118;2024-02-16T01:49:40;251.77;;;94.85;;
23310;SDS011;11828;51.508;18.118;2024-02-16T01:52:07;249.23;;;94.70;;
23310;SDS011;11828;51.508;18.118;2024-02-16T01:54:34;267.00;;;98.70;;
23310;SDS011;11828;51.508;18.118;2024-02-16T01:57:02;233.40;;;94.43;;
23310;SDS011;11828;51.508;18.118;2024-02-16T01:59:30;240.07;;;96.28;;
23310;SDS011;11828;51.508;18.118;2024-02-16T02:01:59;283.85;;;98.85;;
23310;SDS011;11828;51.508;18.118;2024-02-16T02:04:26;252.65;;;94.60;;
23310;SDS011;11828;51.508;18.118;2024-02-16T02:06:53;245.43;;;94.03;;
23310;SDS011;11828;51.508;18.118;2024-02-16T02:09:20;248.02;;;92.88;;
23310;SDS011;11828;51.508;18.118;2024-02-16T02:11:46;251.82;;;94.35;;
23310;SDS011;11828;51.508;18.118;2024-02-16T02:14:13;262.95;;;95.70;;
23310;SDS011;11828;51.508;18.118;2024-02-16T02:16:40;252.52;;;94.28;;
23310;SDS011;11828;51.508;18.118;2024-02-16T02:19:07;274.17;;;99.15;;
23310;SDS011;11828;51.508;18.118;2024-02-16T02:21:34;245.57;;;94.38;;
23310;SDS011;11828;51.508;18.118;2024-02-16T02:24:00;248.52;;;95.15;;
23310;SDS011;11828;51.508;18.118;2024-02-16T02:26:28;244.55;;;92.07;;
23310;SDS011;11828;51.508;18.118;2024-02-16T02:28:55;245.07;;;94.97;;
23310;SDS011;11828;51.508;18.118;2024-02-16T02:31:22;245.20;;;94.18;;
23310;SDS011;11828;51.508;18.118;2024-02-16T02:33:48;261.35;;;98.53;;
23310;SDS011;11828;51.508;18.118;2024-02-16T02:36:14;255.15;;;97.03;;
23310;SDS011;11828;51.508;18.118;2024-02-16T02:38:41;252.63;;;93.60;;
23310;SDS011;11828;51.508;18.118;2024-02-16T02:41:10;246.20;;;93.93;;
23310;SDS011;11828;51.508;18.118;2024-02-16T02:43:36;249.57;;;94.25;;
23310;SDS011;11828;51.508;18.118;2024-02-16T02:46:03;243.40;;;92.28;;
23310;SDS011;11828;51.508;18.118;2024-02-16T02:48:29;243.27;;;92.32;;
23310;SDS011;11828;51.508;18.118;2024-02-16T02:50:56;266.17;;;94.35;;
23310;SDS011;11828;51.508;18.118;2024-02-16T02:53:27;246.82;;;91.88;;
23310;SDS011;11828;51.508;18.118;2024-02-16T02:55:55;240.30;;;92.32;;
23310;SDS011;11828;51.508;18.118;2024-02-16T02:58:21;238.60;;;89.28;;
23310;SDS011;11828;51.508;18.118;2024-02-16T03:00:48;240.27;;;91.65;;
23310;SDS011;11828;51.508;18.118;2024-02-16T03:03:15;240.80;;;88.78;;
23310;SDS011;11828;51.508;18.118;2024-02-16T03:05:42;247.80;;;91.85;;
23310;SDS011;11828;51.508;18.118;2024-02-16T03:08:08;245.18;;;92.32;;
23310;SDS011;11828;51.508;18.118;2024-02-16T03:10:36;245.18;;;93.05;;
23310;SDS011;11828;51.508;18.118;2024-02-16T03:13:03;245.18;;;90.47;;
23310;SDS011;11828;51.508;18.118;2024-02-16T03:15:32;255.63;;;97.15;;
23310;SDS011;11828;51.508;18.118;2024-02-16T03:18:01;250.73;;;94.88;;
23310;SDS011;11828;51.508;18.118;2024-02-16T03:20:29;253.13;;;94.50;;
23310;SDS011;11828;51.508;18.118;2024-02-16T03:22:56;255.20;;;96.78;;
23310;SDS011;11828;51.508;18.118;2024-02-16T03:25:23;239.15;;;91.13;;
23310;SDS011;11828;51.508;18.118;2024-02-16T03:27:49;250.90;;;92.65;;
23310;SDS011;11828;51.508;18.118;2024-02-16T03:30:17;245.30;;;93.10;;
23310;SDS011;11828;51.508;18.118;2024-02-16T03:32:43;245.80;;;92.32;;
23310;SDS011;11828;51.508;18.118;2024-02-16T03:35:17;242.32;;;90.50;;
23310;SDS011;11828;51.508;18.118;2024-02-16T03:37:44;250.13;;;93.30;;
23310;SDS011;11828;51.508;18.118;2024-02-16T03:40:11;242.00;;;89.32;;
23310;SDS011;11828;51.508;18.118;2024-02-16T03:42:41;244.27;;;90.88;;
23310;SDS011;11828;51.508;18.118;2024-02-16T03:45:08;249.90;;;92.13;;
23310;SDS011;11828;51.508;18.118;2024-02-16T03:47:39;252.68;;;94.80;;
23310;SDS011;11828;51.508;18.118;2024-02-16T03:50:07;248.98;;;92.57;;
23310;SDS011;11828;51.508;18.118;2024-02-16T03:52:34;245.63;;;91.30;;
23310;SDS011;11828;51.508;18.118;2024-02-16T03:55:01;241.95;;;88.03;;
23310;SDS011;11828;51.508;18.118;2024-02-16T03:57:30;247.00;;;91.20;;
23310;SDS011;11828;51.508;18.118;2024-02-16T03:59:57;243.77;;;88.13;;
23310;SDS011;11828;51.508;18.118;2024-02-16T04:02:24;241.68;;;86.93;;
23310;SDS011;11828;51.508;18.118;2024-02-16T04:04:51;253.45;;;91.47;;
23310;SDS011;11828;51.508;18.118;2024-02-16T04:07:18;264.52;;;93.93;;
23310;SDS011;11828;51.508;18.118;2024-02-16T04:09:45;240.68;;;91.60;;
23310;SDS011;11828;51.508;18.118;2024-02-16T04:12:11;243.48;;;89.53;;
23310;SDS011;11828;51.508;18.118;2024-02-16T04:14:38;261.65;;;90.00;;
23310;SDS011;11828;51.508;18.118;2024-02-16T04:17:04;149.23;;;89.70;;
23310;SDS011;11828;51.508;18.118;2024-02-16T04:19:31;235.32;;;86.15;;
23310;SDS011;11828;51.508;18.118;2024-02-16T04:21:58;235.77;;;86.35;;
23310;SDS011;11828;51.508;18.118;2024-02-16T04:24:24;236.90;;;87.47;;
23310;SDS011;11828;51.508;18.118;2024-02-16T04:26:51;241.23;;;87.82;;
23310;SDS011;11828;51.508;18.118;2024-02-16T04:29:18;237.82;;;86.97;;
23310;SDS011;11828;51.508;18.118;2024-02-16T04:31:45;245.80;;;88.28;;
23310;SDS011;11828;51.508;18.118;2024-02-16T04:34:13;237.20;;;87.63;;
23310;SDS011;11828;51.508;18.118;2024-02-16T04:36:40;244.32;;;91.55;;
23310;SDS011;11828;51.508;18.118;2024-02-16T04:39:07;256.63;;;92.80;;
23310;SDS011;11828;51.508;18.118;2024-02-16T04:41:35;267.80;;;93.55;;
23310;SDS011;11828;51.508;18.118;2024-02-16T04:44:02;270.35;;;90.47;;
23310;SDS011;11828;51.508;18.118;2024-02-16T04:46:29;245.73;;;90.85;;
23310;SDS011;11828;51.508;18.118;2024-02-16T04:48:56;249.98;;;92.47;;
23310;SDS011;11828;51.508;18.118;2024-02-16T04:51:23;254.30;;;93.35;;
23310;SDS011;11828;51.508;18.118;2024-02-16T04:53:49;258.60;;;91.25;;
23310;SDS011;11828;51.508;18.118;2024-02-16T04:56:16;243.48;;;89.30;;
23310;SDS011;11828;51.508;18.118;2024-02-16T04:58:43;247.50;;;92.82;;
23310;SDS011;11828;51.508;18.118;2024-02-16T05:01:09;250.90;;;93.70;;
23310;SDS011;11828;51.508;18.118;2024-02-16T05:03:36;242.98;;;90.40;;
23310;SDS011;11828;51.508;18.118;2024-02-16T05:06:05;242.18;;;89.43;;
23310;SDS011;11828;51.508;18.118;2024-02-16T05:08:32;236.40;;;87.00;;
23310;SDS011;11828;51.508;18.118;2024-02-16T05:10:59;262.20;;;90.95;;
23310;SDS011;11828;51.508;18.118;2024-02-16T05:13:27;243.63;;;86.97;;
23310;SDS011;11828;51.508;18.118;2024-02-16T05:15:54;230.45;;;85.22;;
23310;SDS011;11828;51.508;18.118;2024-02-16T05:18:21;230.77;;;84.00;;
23310;SDS011;11828;51.508;18.118;2024-02-16T05:20:48;234.50;;;85.70;;
23310;SDS011;11828;51.508;18.118;2024-02-16T05:23:15;229.65;;;85.38;;
23310;SDS011;11828;51.508;18.118;2024-02-16T05:25:41;278.75;;;89.70;;
23310;SDS011;11828;51.508;18.118;2024-02-16T05:28:08;256.38;;;85.55;;
23310;SDS011;11828;51.508;18.118;2024-02-16T05:30:35;236.85;;;86.15;;
23310;SDS011;11828;51.508;18.118;2024-02-16T05:33:02;250.70;;;85.78;;
23310;SDS011;11828;51.508;18.118;2024-02-16T05:35:29;228.98;;;81.45;;
23310;SDS011;11828;51.508;18.118;2024-02-16T05:37:59;231.85;;;83.00;;
23310;SDS011;11828;51.508;18.118;2024-02-16T05:40:32;227.65;;;82.45;;
23310;SDS011;11828;51.508;18.118;2024-02-16T05:43:10;247.00;;;84.60;;
23310;SDS011;11828;51.508;18.118;2024-02-16T05:45:37;232.95;;;84.95;;
23310;SDS011;11828;51.508;18.118;2024-02-16T05:48:07;239.73;;;87.80;;
23310;SDS011;11828;51.508;18.118;2024-02-16T05:50:35;235.07;;;85.53;;
23310;SDS011;11828;51.508;18.118;2024-02-16T05:53:08;245.68;;;90.18;;
23310;SDS011;11828;51.508;18.118;2024-02-16T05:55:36;264.33;;;92.53;;
23310;SDS011;11828;51.508;18.118;2024-02-16T05:58:03;252.18;;;91.25;;
23310;SDS011;11828;51.508;18.118;2024-02-16T06:00:31;258.38;;;92.20;;
23310;SDS011;11828;51.508;18.118;2024-02-16T06:03:00;262.73;;;92.55;;
23310;SDS011;11828;51.508;18.118;2024-02-16T06:05:26;234.30;;;88.22;;
23310;SDS011;11828;51.508;18.118;2024-02-16T06:07:54;246.70;;;95.03;;
23310;SDS011;11828;51.508;18.118;2024-02-16T06:10:22;244.68;;;86.68;;
23310;SDS011;11828;51.508;18.118;2024-02-16T06:12:49;245.20;;;88.88;;
23310;SDS011;11828;51.508;18.118;2024-02-16T06:15:15;241.52;;;88.30;;
23310;SDS011;11828;51.508;18.118;2024-02-16T06:17:42;260.75;;;90.50;;
23310;SDS011;11828;51.508;18.118;2024-02-16T06:20:09;271.73;;;97.72;;
23310;SDS011;11828;51.508;18.118;2024-02-16T06:22:37;247.75;;;94.78;;
23310;SDS011;11828;51.508;18.118;2024-02-16T06:25:03;257.95;;;93.78;;
23310;SDS011;11828;51.508;18.118;2024-02-16T06:27:31;242.27;;;91.47;;
23310;SDS011;11828;51.508;18.118;2024-02-16T06:29:57;244.77;;;89.68;;
23310;SDS011;11828;51.508;18.118;2024-02-16T06:32:24;249.15;;;90.75;;
23310;SDS011;11828;51.508;18.118;2024-02-16T06:34:52;229.55;;;96.53;;
23310;SDS011;11828;51.508;18.118;2024-02-16T06:37:19;249.45;;;91.75;;
23310;SDS011;11828;51.508;18.118;2024-02-16T06:39:45;282.27;;;97.00;;
23310;SDS011;11828;51.508;18.118;2024-02-16T06:42:12;251.75;;;95.85;;
23310;SDS011;11828;51.508;18.118;2024-02-16T06:44:39;247.63;;;92.85;;
23310;SDS011;11828;51.508;18.118;2024-02-16T06:47:07;258.20;;;98.93;;
23310;SDS011;11828;51.508;18.118;2024-02-16T06:49:33;282.10;;;111.95;;
23310;SDS011;11828;51.508;18.118;2024-02-16T06:52:00;356.98;;;133.75;;
23310;SDS011;11828;51.508;18.118;2024-02-16T06:54:27;300.35;;;110.90;;
23310;SDS011;11828;51.508;18.118;2024-02-16T06:56:54;308.27;;;113.00;;
23310;SDS011;11828;51.508;18.118;2024-02-16T06:59:20;280.23;;;100.00;;
23310;SDS011;11828;51.508;18.118;2024-02-16T07:01:47;289.88;;;100.18;;
23310;SDS011;11828;51.508;18.118;2024-02-16T07:04:14;286.55;;;96.75;;
23310;SDS011;11828;51.508;18.118;2024-02-16T07:06:41;274.00;;;95.65;;
23310;SDS011;11828;51.508;18.118;2024-02-16T07:09:08;283.80;;;97.53;;
23310;SDS011;11828;51.508;18.118;2024-02-16T07:11:35;288.17;;;96.72;;
23310;SDS011;11828;51.508;18.118;2024-02-16T07:14:01;275.92;;;97.72;;
23310;SDS011;11828;51.508;18.118;2024-02-16T07:16:28;275.30;;;98.15;;
23310;SDS011;11828;51.508;18.118;2024-02-16T07:18:55;285.20;;;100.88;;
23310;SDS011;11828;51.508;18.118;2024-02-16T07:21:22;283.60;;;101.10;;
23310;SDS011;11828;51.508;18.118;2024-02-16T07:23:48;284.02;;;102.25;;
23310;SDS011;11828;51.508;18.118;2024-02-16T07:26:15;302.67;;;105.68;;
23310;SDS011;11828;51.508;18.118;2024-02-16T07:28:42;301.58;;;103.68;;
23310;SDS011;11828;51.508;18.118;2024-02-16T07:31:10;277.85;;;100.47;;
23310;SDS011;11828;51.508;18.118;2024-02-16T07:33:36;288.23;;;98.32;;
23310;SDS011;11828;51.508;18.118;2024-02-16T07:36:03;276.92;;;99.13;;
23310;SDS011;11828;51.508;18.118;2024-02-16T07:38:30;280.27;;;98.55;;
23310;SDS011;11828;51.508;18.118;2024-02-16T07:40:57;283.92;;;100.90;;
23310;SDS011;11828;51.508;18.118;2024-02-16T07:43:24;275.20;;;99.57;;
23310;SDS011;11828;51.508;18.118;2024-02-16T07:45:53;282.08;;;103.10;;
23310;SDS011;11828;51.508;18.118;2024-02-16T07:48:19;280.67;;;100.90;;
23310;SDS011;11828;51.508;18.118;2024-02-16T07:50:47;302.65;;;104.85;;
23310;SDS011;11828;51.508;18.118;2024-02-16T07:53:15;269.63;;;98.22;;
23310;SDS011;11828;51.508;18.118;2024-02-16T07:55:42;272.50;;;99.68;;
23310;SDS011;11828;51.508;18.118;2024-02-16T07:58:09;286.55;;;105.22;;
23310;SDS011;11828;51.508;18.118;2024-02-16T08:00:36;351.60;;;118.20;;
23310;SDS011;11828;51.508;18.118;2024-02-16T08:03:02;439.15;;;132.93;;
23310;SDS011;11828;51.508;18.118;2024-02-16T08:05:29;333.77;;;113.18;;
23310;SDS011;11828;51.508;18.118;2024-02-16T08:07:55;308.50;;;108.30;;
23310;SDS011;11828;51.508;18.118;2024-02-16T08:10:23;282.83;;;102.60;;
23310;SDS011;11828;51.508;18.118;2024-02-16T08:12:50;277.95;;;102.35;;
23310;SDS011;11828;51.508;18.118;2024-02-16T08:15:18;278.65;;;101.68;;
23310;SDS011;11828;51.508;18.118;2024-02-16T08:17:51;279.40;;;101.75;;
23310;SDS011;11828;51.508;18.118;2024-02-16T08:20:18;270.77;;;99.82;;
23310;SDS011;11828;51.508;18.118;2024-02-16T08:22:45;264.90;;;99.28;;
23310;SDS011;11828;51.508;18.118;2024-02-16T08:25:12;266.23;;;98.40;;
23310;SDS011;11828;51.508;18.118;2024-02-16T08:27:42;260.42;;;96.30;;
23310;SDS011;11828;51.508;18.118;2024-02-16T08:30:08;265.67;;;97.22;;
23310;SDS011;11828;51.508;18.118;2024-02-16T08:32:36;263.27;;;98.05;;
23310;SDS011;11828;51.508;18.118;2024-02-16T08:35:03;261.33;;;96.72;;
23310;SDS011;11828;51.508;18.118;2024-02-16T08:37:30;256.05;;;96.47;;
23310;SDS011;11828;51.508;18.118;2024-02-16T08:39:57;278.95;;;100.40;;
23310;SDS011;11828;51.508;18.118;2024-02-16T08:42:24;254.52;;;95.90;;
23310;SDS011;11828;51.508;18.118;2024-02-16T08:44:51;260.05;;;96.22;;
23310;SDS011;11828;51.508;18.118;2024-02-16T08:47:17;258.40;;;96.22;;
23310;SDS011;11828;51.508;18.118;2024-02-16T08:49:44;262.33;;;97.30;;
23310;SDS011;11828;51.508;18.118;2024-02-16T08:52:11;301.65;;;109.68;;
23310;SDS011;11828;51.508;18.118;2024-02-16T08:54:37;268.48;;;100.32;;
23310;SDS011;11828;51.508;18.118;2024-02-16T08:57:04;269.40;;;97.57;;
23310;SDS011;11828;51.508;18.118;2024-02-16T08:59:31;260.65;;;95.28;;
23310;SDS011;11828;51.508;18.118;2024-02-16T09:01:58;234.57;;;91.60;;
23310;SDS011;11828;51.508;18.118;2024-02-16T09:04:25;252.13;;;91.10;;
23310;SDS011;11828;51.508;18.118;2024-02-16T09:06:52;249.52;;;92.00;;
23310;SDS011;11828;51.508;18.118;2024-02-16T09:09:19;252.27;;;93.28;;
23310;SDS011;11828;51.508;18.118;2024-02-16T09:11:45;257.80;;;94.88;;
23310;SDS011;11828;51.508;18.118;2024-02-16T09:14:12;269.48;;;102.35;;
23310;SDS011;11828;51.508;18.118;2024-02-16T09:16:39;247.65;;;96.28;;
23310;SDS011;11828;51.508;18.118;2024-02-16T09:19:06;253.82;;;104.45;;
23310;SDS011;11828;51.508;18.118;2024-02-16T09:21:33;253.23;;;97.65;;
23310;SDS011;11828;51.508;18.118;2024-02-16T09:24:00;246.98;;;92.97;;
23310;SDS011;11828;51.508;18.118;2024-02-16T09:26:30;257.23;;;95.30;;
23310;SDS011;11828;51.508;18.118;2024-02-16T09:28:58;255.88;;;96.72;;
23310;SDS011;11828;51.508;18.118;2024-02-16T09:31:25;252.95;;;94.15;;
23310;SDS011;11828;51.508;18.118;2024-02-16T09:33:51;252.93;;;95.85;;
23310;SDS011;11828;51.508;18.118;2024-02-16T09:36:18;254.02;;;97.93;;
23310;SDS011;11828;51.508;18.118;2024-02-16T09:38:46;252.73;;;101.35;;
23310;SDS011;11828;51.508;18.118;2024-02-16T09:41:12;266.75;;;101.05;;
23310;SDS011;11828;51.508;18.118;2024-02-16T09:43:40;263.88;;;94.97;;
23310;SDS011;11828;51.508;18.118;2024-02-16T09:46:06;262.77;;;96.32;;
23310;SDS011;11828;51.508;18.118;2024-02-16T09:48:36;246.50;;;93.10;;
23310;SDS011;11828;51.508;18.118;2024-02-16T09:51:06;246.25;;;93.75;;
23310;SDS011;11828;51.508;18.118;2024-02-16T09:53:34;252.20;;;93.57;;
23310;SDS011;11828;51.508;18.118;2024-02-16T09:56:00;267.23;;;97.03;;
23310;SDS011;11828;51.508;18.118;2024-02-16T09:58:28;252.18;;;95.18;;
23310;SDS011;11828;51.508;18.118;2024-02-16T10:00:55;258.63;;;93.55;;
23310;SDS011;11828;51.508;18.118;2024-02-16T10:03:26;250.80;;;93.97;;
23310;SDS011;11828;51.508;18.118;2024-02-16T10:06:07;258.83;;;93.28;;
23310;SDS011;11828;51.508;18.118;2024-02-16T10:08:47;251.68;;;95.07;;
23310;SDS011;11828;51.508;18.118;2024-02-16T10:11:22;248.18;;;91.53;;
23310;SDS011;11828;51.508;18.118;2024-02-16T10:14:02;244.40;;;90.47;;
23310;SDS011;11828;51.508;18.118;2024-02-16T10:16:29;248.98;;;92.25;;
23310;SDS011;11828;51.508;18.118;2024-02-16T10:19:07;245.38;;;92.90;;
23310;SDS011;11828;51.508;18.118;2024-02-16T10:21:37;249.10;;;94.22;;
23310;SDS011;11828;51.508;18.118;2024-02-16T10:24:05;251.50;;;93.15;;
23310;SDS011;11828;51.508;18.118;2024-02-16T10:26:33;246.90;;;92.70;;
23310;SDS011;11828;51.508;18.118;2024-02-16T10:29:04;245.00;;;91.97;;
23310;SDS011;11828;51.508;18.118;2024-02-16T10:31:33;242.98;;;91.93;;
23310;SDS011;11828;51.508;18.118;2024-02-16T10:34:01;249.00;;;92.53;;
23310;SDS011;11828;51.508;18.118;2024-02-16T10:36:32;250.75;;;91.88;;
23310;SDS011;11828;51.508;18.118;2024-02-16T10:39:00;263.60;;;93.00;;
23310;SDS011;11828;51.508;18.118;2024-02-16T10:41:47;242.55;;;91.97;;
23310;SDS011;11828;51.508;18.118;2024-02-16T10:44:15;253.50;;;93.00;;
23310;SDS011;11828;51.508;18.118;2024-02-16T10:46:41;243.55;;;90.90;;
23310;SDS011;11828;51.508;18.118;2024-02-16T10:49:08;257.98;;;93.28;;
23310;SDS011;11828;51.508;18.118;2024-02-16T10:51:36;240.63;;;89.65;;
23310;SDS011;11828;51.508;18.118;2024-02-16T10:54:06;246.32;;;90.43;;
23310;SDS011;11828;51.508;18.118;2024-02-16T10:56:38;244.45;;;89.65;;
23310;SDS011;11828;51.508;18.118;2024-02-16T10:59:09;242.70;;;89.97;;
23310;SDS011;11828;51.508;18.118;2024-02-16T11:01:43;242.18;;;90.50;;
23310;SDS011;11828;51.508;18.118;2024-02-16T11:04:14;245.77;;;90.75;;
23310;SDS011;11828;51.508;18.118;2024-02-16T11:06:52;238.15;;;88.72;;
23310;SDS011;11828;51.508;18.118;2024-02-16T11:11:52;235.45;;;89.47;;
23310;SDS011;11828;51.508;18.118;2024-02-16T11:14:22;243.63;;;87.47;;
23310;SDS011;11828;51.508;18.118;2024-02-16T11:17:09;238.85;;;89.25;;
23310;SDS011;11828;51.508;18.118;2024-02-16T11:19:37;239.23;;;89.88;;
23310;SDS011;11828;51.508;18.118;2024-02-16T11:22:11;238.07;;;88.07;;
23310;SDS011;11828;51.508;18.118;2024-02-16T11:24:47;243.18;;;89.97;;
23310;SDS011;11828;51.508;18.118;2024-02-16T11:27:15;240.75;;;89.40;;
23310;SDS011;11828;51.508;18.118;2024-02-16T11:29:45;249.52;;;90.10;;
23310;SDS011;11828;51.508;18.118;2024-02-16T11:32:12;244.02;;;89.68;;
23310;SDS011;11828;51.508;18.118;2024-02-16T11:34:39;242.68;;;89.93;;
23310;SDS011;11828;51.508;18.118;2024-02-16T11:37:06;234.95;;;88.07;;
23310;SDS011;11828;51.508;18.118;2024-02-16T11:39:33;236.57;;;88.25;;
23310;SDS011;11828;51.508;18.118;2024-02-16T11:42:09;241.18;;;88.07;;
23310;SDS011;11828;51.508;18.118;2024-02-16T11:44:38;242.73;;;86.75;;
23310;SDS011;11828;51.508;18.118;2024-02-16T11:47:07;236.02;;;87.18;;
23310;SDS011;11828;51.508;18.118;2024-02-16T11:49:38;239.98;;;89.53;;
23310;SDS011;11828;51.508;18.118;2024-02-16T11:52:04;252.15;;;91.63;;
23310;SDS011;11828;51.508;18.118;2024-02-16T11:54:31;243.20;;;88.50;;
23310;SDS011;11828;51.508;18.118;2024-02-16T11:56:58;254.80;;;89.93;;
23310;SDS011;11828;51.508;18.118;2024-02-16T11:59:24;243.20;;;87.95;;
23310;SDS011;11828;51.508;18.118;2024-02-16T12:01:55;260.30;;;91.45;;
23310;SDS011;11828;51.508;18.118;2024-02-16T12:04:28;239.07;;;89.05;;
23310;SDS011;11828;51.508;18.118;2024-02-16T12:06:59;234.05;;;88.32;;
23310;SDS011;11828;51.508;18.118;2024-02-16T12:09:28;246.35;;;88.13;;
23310;SDS011;11828;51.508;18.118;2024-02-16T12:11:55;238.88;;;88.72;;
23310;SDS011;11828;51.508;18.118;2024-02-16T12:14:22;243.98;;;89.28;;
23310;SDS011;11828;51.508;18.118;2024-02-16T12:16:52;242.25;;;89.53;;
23310;SDS011;11828;51.508;18.118;2024-02-16T12:19:22;244.70;;;92.40;;
23310;SDS011;11828;51.508;18.118;2024-02-16T12:21:49;240.13;;;89.38;;
23310;SDS011;11828;51.508;18.118;2024-02-16T12:24:19;234.40;;;90.75;;
23310;SDS011;11828;51.508;18.118;2024-02-16T12:26:47;240.30;;;89.05;;
23310;SDS011;11828;51.508;18.118;2024-02-16T12:29:13;250.13;;;91.40;;
23310;SDS011;11828;51.508;18.118;2024-02-16T12:31:40;245.93;;;91.53;;
23310;SDS011;11828;51.508;18.118;2024-02-16T12:34:07;250.38;;;91.35;;
23310;SDS011;11828;51.508;18.118;2024-02-16T12:36:33;246.48;;;91.28;;
23310;SDS011;11828;51.508;18.118;2024-02-16T12:39:01;279.45;;;95.88;;
23310;SDS011;11828;51.508;18.118;2024-02-16T12:41:32;260.17;;;95.97;;
23310;SDS011;11828;51.508;18.118;2024-02-16T12:44:00;245.07;;;92.70;;
23310;SDS011;11828;51.508;18.118;2024-02-16T12:46:26;246.63;;;92.18;;
23310;SDS011;11828;51.508;18.118;2024-02-16T12:48:56;248.35;;;91.13;;
23310;SDS011;11828;51.508;18.118;2024-02-16T12:51:22;245.50;;;91.20;;
23310;SDS011;11828;51.508;18.118;2024-02-16T12:53:49;240.90;;;89.85;;
23310;SDS011;11828;51.508;18.118;2024-02-16T12:56:16;225.73;;;90.78;;
23310;SDS011;11828;51.508;18.118;2024-02-16T12:58:43;240.73;;;91.03;;
23310;SDS011;11828;51.508;18.118;2024-02-16T13:01:09;260.60;;;92.47;;
23310;SDS011;11828;51.508;18.118;2024-02-16T13:03:37;251.02;;;91.88;;
23310;SDS011;11828;51.508;18.118;2024-02-16T13:06:07;241.85;;;90.68;;
23310;SDS011;11828;51.508;18.118;2024-02-16T13:08:34;241.25;;;90.57;;
23310;SDS011;11828;51.508;18.118;2024-02-16T13:11:00;241.15;;;90.88;;
23310;SDS011;11828;51.508;18.118;2024-02-16T13:13:28;242.85;;;91.18;;
23310;SDS011;11828;51.508;18.118;2024-02-16T13:15:55;261.75;;;91.63;;
23310;SDS011;11828;51.508;18.118;2024-02-16T13:18:23;247.25;;;89.28;;
23310;SDS011;11828;51.508;18.118;2024-02-16T13:20:51;241.18;;;89.80;;
23310;SDS011;11828;51.508;18.118;2024-02-16T13:23:18;237.45;;;89.32;;
23310;SDS011;11828;51.508;18.118;2024-02-16T13:25:44;238.65;;;89.97;;
23310;SDS011;11828;51.508;18.118;2024-02-16T13:28:11;237.85;;;90.03;;
23310;SDS011;11828;51.508;18.118;2024-02-16T13:30:37;243.93;;;89.45;;
23310;SDS011;11828;51.508;18.118;2024-02-16T13:33:04;242.82;;;89.90;;
23310;SDS011;11828;51.508;18.118;2024-02-16T13:35:33;238.68;;;88.15;;
23310;SDS011;11828;51.508;18.118;2024-02-16T13:38:01;239.65;;;89.28;;
23310;SDS011;11828;51.508;18.118;2024-02-16T13:40:27;256.52;;;88.93;;
23310;SDS011;11828;51.508;18.118;2024-02-16T13:42:54;239.30;;;86.38;;
23310;SDS011;11828;51.508;18.118;2024-02-16T13:45:32;232.85;;;86.15;;
23310;SDS011;11828;51.508;18.118;2024-02-16T13:48:17;240.82;;;86.22;;
23310;SDS011;11828;51.508;18.118;2024-02-16T13:50:45;231.43;;;86.07;;
23310;SDS011;11828;51.508;18.118;2024-02-16T13:53:15;249.38;;;88.18;;
23310;SDS011;11828;51.508;18.118;2024-02-16T13:55:42;241.32;;;88.10;;
23310;SDS011;11828;51.508;18.118;2024-02-16T13:58:10;233.43;;;88.82;;
23310;SDS011;11828;51.508;18.118;2024-02-16T14:00:37;264.77;;;93.55;;
23310;SDS011;11828;51.508;18.118;2024-02-16T14:03:06;244.90;;;90.55;;